Terminal Aerodrome Forecast
Issued by NWS Charleston, WV

Current Version | Previous Version | Graphics & Text | Print | Product List | Glossary On
Versions: 1 2 3 4 5 6 7 8 9 10 11 12 13 14 15 16 17 18 19 20 21 22 23
000
FTUS41 KRLX 151700 CCA
TAFEKN
TAF COR
KEKN 151741Z 1518/1618 VRB03KT P6SM BKN250
     FM160300 16003KT 4SM BR SKC
     FM160800 17005KT 6SM -SHRA BKN050
     FM161100 18004KT 4SM -SHRA BR OVC030
     FM161400 18007KT 4SM BR BKN028
     FM161700 20008G16KT 4SM BR OVC015=

USA.gov is the U.S. government's official web portal to all federal, state and local government web resources and services.